sensor_id;sensor_type;location;lat;lon;timestamp;pressure;altitude;pressure_sealevel;temperature;humidity
13934;BME280;7039;52.168;9.866;2023-05-16T00:01:29;100429.13;;;11.34;83.19
13934;BME280;7039;52.168;9.866;2023-05-16T00:04:26;100428.56;;;11.45;82.79
13934;BME280;7039;52.168;9.866;2023-05-16T00:06:54;100424.81;;;11.33;83.30
13934;BME280;7039;52.168;9.866;2023-05-16T00:09:23;100428.63;;;11.27;83.55
13934;BME280;7039;52.168;9.866;2023-05-16T00:11:52;100438.56;;;11.37;83.71
13934;BME280;7039;52.168;9.866;2023-05-16T00:14:21;100434.88;;;11.41;83.39
13934;BME280;7039;52.168;9.866;2023-05-16T00:16:51;100423.84;;;11.36;83.42
13934;BME280;7039;52.168;9.866;2023-05-16T00:19:18;100431.00;;;11.48;83.07
13934;BME280;7039;52.168;9.866;2023-05-16T00:21:48;100430.03;;;11.33;83.44
13934;BME280;7039;52.168;9.866;2023-05-16T00:24:16;100423.09;;;11.00;84.76
13934;BME280;7039;52.168;9.866;2023-05-16T00:26:47;100430.31;;;11.44;83.59
13934;BME280;7039;52.168;9.866;2023-05-16T00:29:19;100434.88;;;11.73;82.43
13934;BME280;7039;52.168;9.866;2023-05-16T00:31:49;100434.53;;;11.63;82.62
13934;BME280;7039;52.168;9.866;2023-05-16T00:34:30;100433.28;;;11.54;83.31
13934;BME280;7039;52.168;9.866;2023-05-16T00:37:02;100431.56;;;11.53;82.84
13934;BME280;7039;52.168;9.866;2023-05-16T00:39:30;100424.22;;;11.28;83.69
13934;BME280;7039;52.168;9.866;2023-05-16T00:41:57;100420.69;;;11.13;84.28
13934;BME280;7039;52.168;9.866;2023-05-16T00:44:27;100424.25;;;11.44;83.76
13934;BME280;7039;52.168;9.866;2023-05-16T00:46:58;100428.88;;;11.55;83.15
13934;BME280;7039;52.168;9.866;2023-05-16T00:49:40;100421.53;;;11.29;84.33
13934;BME280;7039;52.168;9.866;2023-05-16T00:52:07;100418.91;;;11.14;84.49
13934;BME280;7039;52.168;9.866;2023-05-16T00:54:49;100417.66;;;11.21;84.88
13934;BME280;7039;52.168;9.866;2023-05-16T00:57:17;100417.41;;;11.41;84.34
13934;BME280;7039;52.168;9.866;2023-05-16T00:59:46;100428.88;;;11.55;83.86
13934;BME280;7039;52.168;9.866;2023-05-16T01:02:36;100426.28;;;11.55;83.96
13934;BME280;7039;52.168;9.866;2023-05-16T01:05:04;100418.63;;;11.67;83.23
13934;BME280;7039;52.168;9.866;2023-05-16T01:07:33;100422.66;;;11.89;82.84
13934;BME280;7039;52.168;9.866;2023-05-16T01:10:01;100429.22;;;11.64;84.33
13934;BME280;7039;52.168;9.866;2023-05-16T01:12:36;100429.13;;;11.50;84.84
13934;BME280;7039;52.168;9.866;2023-05-16T01:15:12;100430.56;;;11.56;85.29
13934;BME280;7039;52.168;9.866;2023-05-16T01:17:52;100431.31;;;11.58;85.29
13934;BME280;7039;52.168;9.866;2023-05-16T01:20:30;100435.44;;;11.30;86.71
13934;BME280;7039;52.168;9.866;2023-05-16T01:23:08;100431.06;;;11.46;85.89
13934;BME280;7039;52.168;9.866;2023-05-16T01:28:54;100437.88;;;11.49;84.88
13934;BME280;7039;52.168;9.866;2023-05-16T01:31:21;100442.47;;;11.61;84.25
13934;BME280;7039;52.168;9.866;2023-05-16T01:33:49;100440.97;;;11.89;83.40
13934;BME280;7039;52.168;9.866;2023-05-16T01:36:23;100449.22;;;11.65;83.85
13934;BME280;7039;52.168;9.866;2023-05-16T01:39:00;100435.72;;;11.57;84.35
13934;BME280;7039;52.168;9.866;2023-05-16T01:41:37;100448.00;;;11.55;84.57
13934;BME280;7039;52.168;9.866;2023-05-16T01:44:15;100449.22;;;11.65;84.52
13934;BME280;7039;52.168;9.866;2023-05-16T01:46:44;100447.75;;;11.44;85.52
13934;BME280;7039;52.168;9.866;2023-05-16T01:49:16;100452.56;;;11.52;85.31
13934;BME280;7039;52.168;9.866;2023-05-16T01:51:50;100441.19;;;11.53;85.22
13934;BME280;7039;52.168;9.866;2023-05-16T01:54:18;100448.25;;;11.50;85.64
13934;BME280;7039;52.168;9.866;2023-05-16T01:56:50;100444.22;;;11.45;86.43
13934;BME280;7039;52.168;9.866;2023-05-16T01:59:20;100444.03;;;11.32;86.90
13934;BME280;7039;52.168;9.866;2023-05-16T02:01:48;100439.78;;;11.47;85.82
13934;BME280;7039;52.168;9.866;2023-05-16T02:04:18;100453.75;;;11.62;85.64
13934;BME280;7039;52.168;9.866;2023-05-16T02:06:49;100450.38;;;11.60;85.11
13934;BME280;7039;52.168;9.866;2023-05-16T02:09:16;100453.91;;;11.59;85.30
13934;BME280;7039;52.168;9.866;2023-05-16T02:11:43;100452.31;;;11.40;85.74
13934;BME280;7039;52.168;9.866;2023-05-16T02:14:16;100459.66;;;11.49;85.22
13934;BME280;7039;52.168;9.866;2023-05-16T02:16:48;100454.75;;;11.43;86.05
13934;BME280;7039;52.168;9.866;2023-05-16T02:19:26;100468.41;;;11.64;84.70
13934;BME280;7039;52.168;9.866;2023-05-16T02:21:53;100456.53;;;11.59;84.71
13934;BME280;7039;52.168;9.866;2023-05-16T02:24:21;100462.34;;;11.80;83.65
13934;BME280;7039;52.168;9.866;2023-05-16T02:26:51;100457.38;;;11.75;83.38
13934;BME280;7039;52.168;9.866;2023-05-16T02:32:15;100450.03;;;11.66;83.74
13934;BME280;7039;52.168;9.866;2023-05-16T02:37:18;100443.88;;;11.51;83.67
13934;BME280;7039;52.168;9.866;2023-05-16T02:39:47;100449.28;;;11.64;83.84
13934;BME280;7039;52.168;9.866;2023-05-16T02:42:14;100451.88;;;11.48;83.82
13934;BME280;7039;52.168;9.866;2023-05-16T02:44:42;100451.19;;;11.44;83.68
13934;BME280;7039;52.168;9.866;2023-05-16T02:47:11;100463.03;;;11.67;82.98
13934;BME280;7039;52.168;9.866;2023-05-16T02:49:38;100471.19;;;11.77;82.28
13934;BME280;7039;52.168;9.866;2023-05-16T02:52:05;100462.78;;;11.56;82.42
13934;BME280;7039;52.168;9.866;2023-05-16T02:54:36;100471.63;;;11.54;82.39
13934;BME280;7039;52.168;9.866;2023-05-16T02:57:03;100465.13;;;11.61;81.74
13934;BME280;7039;52.168;9.866;2023-05-16T02:59:31;100467.47;;;11.49;81.28
13934;BME280;7039;52.168;9.866;2023-05-16T03:01:58;100476.09;;;11.52;81.01
13934;BME280;7039;52.168;9.866;2023-05-16T03:04:27;100473.97;;;11.42;81.35
13934;BME280;7039;52.168;9.866;2023-05-16T03:06:55;100477.81;;;11.51;81.01
13934;BME280;7039;52.168;9.866;2023-05-16T03:09:22;100476.22;;;11.48;81.06
13934;BME280;7039;52.168;9.866;2023-05-16T03:11:49;100474.13;;;11.39;81.05
13934;BME280;7039;52.168;9.866;2023-05-16T03:14:16;100478.69;;;11.52;80.63
13934;BME280;7039;52.168;9.866;2023-05-16T03:16:44;100484.50;;;11.41;80.55
13934;BME280;7039;52.168;9.866;2023-05-16T03:19:12;100480.00;;;11.27;81.11
13934;BME280;7039;52.168;9.866;2023-05-16T03:24:17;100483.38;;;11.29;81.09
13934;BME280;7039;52.168;9.866;2023-05-16T03:26:55;100482.56;;;11.11;81.68
13934;BME280;7039;52.168;9.866;2023-05-16T03:29:24;100499.34;;;11.23;81.51
13934;BME280;7039;52.168;9.866;2023-05-16T03:31:53;100485.00;;;11.14;82.19
13934;BME280;7039;52.168;9.866;2023-05-16T03:34:35;100494.06;;;11.24;81.60
13934;BME280;7039;52.168;9.866;2023-05-16T03:37:03;100484.94;;;11.16;81.77
13934;BME280;7039;52.168;9.866;2023-05-16T03:42:13;100499.66;;;11.50;80.79
13934;BME280;7039;52.168;9.866;2023-05-16T03:44:42;100493.44;;;11.19;81.63
13934;BME280;7039;52.168;9.866;2023-05-16T03:47:13;100498.41;;;11.24;81.58
13934;BME280;7039;52.168;9.866;2023-05-16T03:49:42;100498.66;;;11.19;82.07
13934;BME280;7039;52.168;9.866;2023-05-16T03:52:10;100502.63;;;11.11;82.69
13934;BME280;7039;52.168;9.866;2023-05-16T03:54:51;100506.19;;;11.25;82.27
13934;BME280;7039;52.168;9.866;2023-05-16T03:57:21;100514.41;;;11.18;82.67
13934;BME280;7039;52.168;9.866;2023-05-16T03:59:48;100512.53;;;10.86;84.10
13934;BME280;7039;52.168;9.866;2023-05-16T04:02:17;100517.44;;;10.93;84.64
13934;BME280;7039;52.168;9.866;2023-05-16T04:04:58;100526.81;;;10.79;85.77
13934;BME280;7039;52.168;9.866;2023-05-16T04:07:32;100528.97;;;10.89;85.14
13934;BME280;7039;52.168;9.866;2023-05-16T04:10:01;100535.72;;;10.75;86.11
13934;BME280;7039;52.168;9.866;2023-05-16T04:12:44;100538.63;;;10.52;86.32
13934;BME280;7039;52.168;9.866;2023-05-16T04:15:10;100535.84;;;10.55;86.80
13934;BME280;7039;52.168;9.866;2023-05-16T04:17:38;100542.00;;;10.89;86.11
13934;BME280;7039;52.168;9.866;2023-05-16T04:20:06;100540.75;;;10.78;84.89
13934;BME280;7039;52.168;9.866;2023-05-16T04:22:50;100533.34;;;10.88;84.25
13934;BME280;7039;52.168;9.866;2023-05-16T04:27:55;100535.06;;;10.87;84.24
13934;BME280;7039;52.168;9.866;2023-05-16T04:30:22;100553.41;;;11.03;83.81
13934;BME280;7039;52.168;9.866;2023-05-16T04:32:48;100551.91;;;10.99;83.64
13934;BME280;7039;52.168;9.866;2023-05-16T04:35:18;100554.31;;;11.37;82.60
13934;BME280;7039;52.168;9.866;2023-05-16T04:38:00;100562.38;;;11.66;81.46
13934;BME280;7039;52.168;9.866;2023-05-16T04:40:29;100565.44;;;11.74;80.73
13934;BME280;7039;52.168;9.866;2023-05-16T04:42:59;100566.25;;;11.59;81.11
13934;BME280;7039;52.168;9.866;2023-05-16T04:45:26;100557.56;;;11.25;81.33
13934;BME280;7039;52.168;9.866;2023-05-16T04:47:53;100569.25;;;11.18;81.95
13934;BME280;7039;52.168;9.866;2023-05-16T04:50:22;100581.41;;;11.35;81.47
13934;BME280;7039;52.168;9.866;2023-05-16T04:53:03;100574.06;;;11.25;81.33
13934;BME280;7039;52.168;9.866;2023-05-16T04:55:40;100579.28;;;11.08;82.88
13934;BME280;7039;52.168;9.866;2023-05-16T04:58:08;100590.59;;;11.08;82.43
13934;BME280;7039;52.168;9.866;2023-05-16T05:00:35;100588.22;;;11.04;82.26
13934;BME280;7039;52.168;9.866;2023-05-16T05:03:02;100589.78;;;10.72;82.93
13934;BME280;7039;52.168;9.866;2023-05-16T05:05:29;100593.06;;;10.58;83.03
13934;BME280;7039;52.168;9.866;2023-05-16T05:07:56;100605.59;;;10.69;82.47
13934;BME280;7039;52.168;9.866;2023-05-16T05:10:23;100599.44;;;10.52;82.34
13934;BME280;7039;52.168;9.866;2023-05-16T05:12:51;100600.50;;;10.48;82.52
13934;BME280;7039;52.168;9.866;2023-05-16T05:15:19;100607.91;;;10.75;81.52
13934;BME280;7039;52.168;9.866;2023-05-16T05:17:46;100608.09;;;10.53;81.65
13934;BME280;7039;52.168;9.866;2023-05-16T05:20:12;100611.53;;;10.72;81.03
13934;BME280;7039;52.168;9.866;2023-05-16T05:22:39;100612.34;;;10.73;80.12
13934;BME280;7039;52.168;9.866;2023-05-16T05:25:06;100618.25;;;10.76;79.95
13934;BME280;7039;52.168;9.866;2023-05-16T05:27:32;100612.69;;;10.84;79.16
13934;BME280;7039;52.168;9.866;2023-05-16T05:29:59;100623.16;;;10.65;78.14
13934;BME280;7039;52.168;9.866;2023-05-16T05:32:27;100626.13;;;10.94;78.02
13934;BME280;7039;52.168;9.866;2023-05-16T05:34:53;100630.88;;;10.85;77.72
13934;BME280;7039;52.168;9.866;2023-05-16T05:37:20;100634.34;;;10.86;76.95
13934;BME280;7039;52.168;9.866;2023-05-16T05:39:46;100644.44;;;10.56;76.75
13934;BME280;7039;52.168;9.866;2023-05-16T05:42:13;100645.56;;;10.69;76.16
13934;BME280;7039;52.168;9.866;2023-05-16T05:44:39;100641.00;;;10.74;75.89
13934;BME280;7039;52.168;9.866;2023-05-16T05:47:06;100647.81;;;10.77;76.15
13934;BME280;7039;52.168;9.866;2023-05-16T05:49:34;100654.00;;;11.11;75.21
13934;BME280;7039;52.168;9.866;2023-05-16T05:52:01;100659.72;;;10.82;75.37
13934;BME280;7039;52.168;9.866;2023-05-16T05:54:27;100654.50;;;10.82;74.90
13934;BME280;7039;52.168;9.866;2023-05-16T05:57:24;100654.03;;;10.55;74.57
13934;BME280;7039;52.168;9.866;2023-05-16T05:59:50;100660.19;;;10.54;74.73
13934;BME280;7039;52.168;9.866;2023-05-16T06:02:18;100664.38;;;10.76;73.46
13934;BME280;7039;52.168;9.866;2023-05-16T06:04:45;100665.66;;;10.67;73.67
13934;BME280;7039;52.168;9.866;2023-05-16T06:07:12;100664.59;;;10.90;72.56
13934;BME280;7039;52.168;9.866;2023-05-16T06:09:40;100680.47;;;10.85;73.65
13934;BME280;7039;52.168;9.866;2023-05-16T06:12:07;100683.72;;;10.53;74.07
13934;BME280;7039;52.168;9.866;2023-05-16T06:14:35;100675.81;;;10.35;73.44
13934;BME280;7039;52.168;9.866;2023-05-16T06:17:01;100682.75;;;10.74;72.87
13934;BME280;7039;52.168;9.866;2023-05-16T06:19:28;100686.38;;;10.89;72.39
13934;BME280;7039;52.168;9.866;2023-05-16T06:21:54;100692.41;;;10.90;71.82
13934;BME280;7039;52.168;9.866;2023-05-16T06:24:21;100680.19;;;10.73;71.17
13934;BME280;7039;52.168;9.866;2023-05-16T06:26:48;100700.00;;;10.77;71.92
13934;BME280;7039;52.168;9.866;2023-05-16T06:29:15;100691.75;;;10.86;72.53
13934;BME280;7039;52.168;9.866;2023-05-16T06:31:44;100698.50;;;10.90;71.44
13934;BME280;7039;52.168;9.866;2023-05-16T06:34:11;100701.22;;;11.23;70.40
13934;BME280;7039;52.168;9.866;2023-05-16T06:36:41;100706.00;;;11.50;69.60
13934;BME280;7039;52.168;9.866;2023-05-16T06:39:08;100707.22;;;11.78;69.93
13934;BME280;7039;52.168;9.866;2023-05-16T06:41:35;100719.53;;;11.58;69.11
13934;BME280;7039;52.168;9.866;2023-05-16T06:44:02;100715.84;;;11.45;69.31
13934;BME280;7039;52.168;9.866;2023-05-16T06:46:29;100719.44;;;11.60;68.58
13934;BME280;7039;52.168;9.866;2023-05-16T06:48:56;100719.91;;;11.50;67.64
13934;BME280;7039;52.168;9.866;2023-05-16T06:51:23;100730.72;;;11.60;67.29
13934;BME280;7039;52.168;9.866;2023-05-16T06:53:49;100715.38;;;11.54;68.12
13934;BME280;7039;52.168;9.866;2023-05-16T06:56:16;100725.00;;;11.54;68.65
13934;BME280;7039;52.168;9.866;2023-05-16T06:58:43;100730.25;;;11.87;68.13
13934;BME280;7039;52.168;9.866;2023-05-16T07:01:10;100710.69;;;11.43;67.25
13934;BME280;7039;52.168;9.866;2023-05-16T07:03:38;100717.66;;;11.60;66.99
13934;BME280;7039;52.168;9.866;2023-05-16T07:06:05;100722.69;;;11.47;66.75
13934;BME280;7039;52.168;9.866;2023-05-16T07:08:32;100725.06;;;11.52;67.06
13934;BME280;7039;52.168;9.866;2023-05-16T07:11:00;100720.75;;;11.68;67.53
13934;BME280;7039;52.168;9.866;2023-05-16T07:13:26;100723.09;;;12.08;66.95
13934;BME280;7039;52.168;9.866;2023-05-16T07:15:53;100720.03;;;12.33;66.57
13934;BME280;7039;52.168;9.866;2023-05-16T07:18:19;100726.81;;;12.69;65.48
13934;BME280;7039;52.168;9.866;2023-05-16T07:20:45;100726.56;;;12.58;65.48
13934;BME280;7039;52.168;9.866;2023-05-16T07:23:13;100725.28;;;12.33;64.69
13934;BME280;7039;52.168;9.866;2023-05-16T07:25:40;100727.25;;;12.12;64.56
13934;BME280;7039;52.168;9.866;2023-05-16T07:28:06;100723.34;;;12.03;63.67
13934;BME280;7039;52.168;9.866;2023-05-16T07:30:33;100724.50;;;11.80;63.82
13934;BME280;7039;52.168;9.866;2023-05-16T07:33:00;100733.50;;;12.43;63.48
13934;BME280;7039;52.168;9.866;2023-05-16T07:35:26;100735.38;;;12.23;63.88
13934;BME280;7039;52.168;9.866;2023-05-16T07:37:53;100731.34;;;12.18;63.68
13934;BME280;7039;52.168;9.866;2023-05-16T07:40:21;100742.28;;;12.08;63.22
13934;BME280;7039;52.168;9.866;2023-05-16T07:42:50;100742.88;;;11.96;63.60
13934;BME280;7039;52.168;9.866;2023-05-16T07:45:16;100744.84;;;12.26;61.91
13934;BME280;7039;52.168;9.866;2023-05-16T07:47:43;100744.88;;;12.08;63.56
13934;BME280;7039;52.168;9.866;2023-05-16T07:50:09;100749.00;;;12.46;63.62
13934;BME280;7039;52.168;9.866;2023-05-16T07:52:36;100739.56;;;12.43;61.97
13934;BME280;7039;52.168;9.866;2023-05-16T07:55:03;100745.91;;;12.06;62.49
13934;BME280;7039;52.168;9.866;2023-05-16T07:57:31;100754.81;;;12.35;60.56
13934;BME280;7039;52.168;9.866;2023-05-16T07:59:59;100734.63;;;12.21;58.75
13934;BME280;7039;52.168;9.866;2023-05-16T08:02:26;100739.03;;;12.37;58.91
13934;BME280;7039;52.168;9.866;2023-05-16T08:04:54;100733.91;;;12.51;59.44
13934;BME280;7039;52.168;9.866;2023-05-16T08:07:21;100730.97;;;12.57;59.12
13934;BME280;7039;52.168;9.866;2023-05-16T08:09:48;100741.09;;;12.47;57.97
13934;BME280;7039;52.168;9.866;2023-05-16T08:12:14;100749.72;;;12.65;56.89
13934;BME280;7039;52.168;9.866;2023-05-16T08:14:42;100745.66;;;12.60;57.85
13934;BME280;7039;52.168;9.866;2023-05-16T08:17:08;100756.13;;;13.07;57.57
13934;BME280;7039;52.168;9.866;2023-05-16T08:19:35;100748.69;;;13.31;57.41
13934;BME280;7039;52.168;9.866;2023-05-16T08:22:01;100748.03;;;12.80;56.06
13934;BME280;7039;52.168;9.866;2023-05-16T08:24:28;100747.34;;;13.24;55.74
13934;BME280;7039;52.168;9.866;2023-05-16T08:26:54;100741.09;;;13.11;57.27
13934;BME280;7039;52.168;9.866;2023-05-16T08:29:21;100741.59;;;13.18;58.18
13934;BME280;7039;52.168;9.866;2023-05-16T08:31:49;100741.94;;;12.95;59.30
13934;BME280;7039;52.168;9.866;2023-05-16T08:34:15;100744.91;;;12.89;59.96
13934;BME280;7039;52.168;9.866;2023-05-16T08:36:42;100741.69;;;13.00;57.86
13934;BME280;7039;52.168;9.866;2023-05-16T08:39:09;100746.66;;;13.05;57.71
13934;BME280;7039;52.168;9.866;2023-05-16T08:41:36;100737.53;;;13.12;57.07
13934;BME280;7039;52.168;9.866;2023-05-16T08:44:04;100749.50;;;13.48;58.05
13934;BME280;7039;52.168;9.866;2023-05-16T08:46:31;100744.56;;;13.11;57.29
13934;BME280;7039;52.168;9.866;2023-05-16T08:49:01;100753.25;;;13.12;58.46
13934;BME280;7039;52.168;9.866;2023-05-16T08:51:32;100748.59;;;13.01;57.13
13934;BME280;7039;52.168;9.866;2023-05-16T08:54:03;100755.19;;;13.40;55.63
13934;BME280;7039;52.168;9.866;2023-05-16T08:56:31;100741.56;;;13.49;56.06
13934;BME280;7039;52.168;9.866;2023-05-16T08:58:59;100745.94;;;13.49;55.23
13934;BME280;7039;52.168;9.866;2023-05-16T09:01:27;100745.59;;;12.93;54.63
13934;BME280;7039;52.168;9.866;2023-05-16T09:03:55;100760.50;;;13.23;56.99
13934;BME280;7039;52.168;9.866;2023-05-16T09:06:23;100748.69;;;13.15;56.51
13934;BME280;7039;52.168;9.866;2023-05-16T09:08:50;100744.63;;;13.10;54.67
13934;BME280;7039;52.168;9.866;2023-05-16T09:11:17;100752.47;;;13.26;55.17
13934;BME280;7039;52.168;9.866;2023-05-16T09:13:45;100751.41;;;13.30;55.85
13934;BME280;7039;52.168;9.866;2023-05-16T09:16:14;100760.66;;;13.51;54.83
13934;BME280;7039;52.168;9.866;2023-05-16T09:18:42;100763.06;;;13.70;55.25
13934;BME280;7039;52.168;9.866;2023-05-16T09:21:10;100745.63;;;13.39;53.97
13934;BME280;7039;52.168;9.866;2023-05-16T09:23:41;100749.84;;;13.26;53.46
13934;BME280;7039;52.168;9.866;2023-05-16T09:26:07;100760.00;;;13.16;55.14
13934;BME280;7039;52.168;9.866;2023-05-16T09:28:36;100771.63;;;13.88;55.18
13934;BME280;7039;52.168;9.866;2023-05-16T09:31:03;100756.38;;;13.95;53.02
13934;BME280;7039;52.168;9.866;2023-05-16T09:33:30;100753.75;;;13.95;53.46
13934;BME280;7039;52.168;9.866;2023-05-16T09:35:57;100754.97;;;13.59;55.30
13934;BME280;7039;52.168;9.866;2023-05-16T09:38:24;100753.38;;;13.56;56.30
13934;BME280;7039;52.168;9.866;2023-05-16T09:40:53;100753.97;;;13.76;56.77
13934;BME280;7039;52.168;9.866;2023-05-16T09:43:23;100743.91;;;13.54;53.66
13934;BME280;7039;52.168;9.866;2023-05-16T09:45:50;100744.28;;;13.62;53.39
13934;BME280;7039;52.168;9.866;2023-05-16T09:48:16;100737.09;;;13.66;53.27
13934;BME280;7039;52.168;9.866;2023-05-16T09:50:46;100735.25;;;13.82;52.96
13934;BME280;7039;52.168;9.866;2023-05-16T09:53:14;100735.00;;;14.01;51.31
13934;BME280;7039;52.168;9.866;2023-05-16T09:55:40;100734.19;;;14.15;51.84
13934;BME280;7039;52.168;9.866;2023-05-16T09:58:08;100739.69;;;14.53;50.58
13934;BME280;7039;52.168;9.866;2023-05-16T10:00:36;100744.19;;;14.37;50.98
13934;BME280;7039;52.168;9.866;2023-05-16T10:03:03;100737.13;;;13.80;49.93
13934;BME280;7039;52.168;9.866;2023-05-16T10:05:30;100740.19;;;14.31;51.13
13934;BME280;7039;52.168;9.866;2023-05-16T10:07:57;100737.00;;;14.96;50.61
13934;BME280;7039;52.168;9.866;2023-05-16T10:10:24;100740.47;;;14.97;49.63
13934;BME280;7039;52.168;9.866;2023-05-16T10:12:51;100735.91;;;14.86;50.68
13934;BME280;7039;52.168;9.866;2023-05-16T10:15:19;100746.78;;;14.80;48.87
13934;BME280;7039;52.168;9.866;2023-05-16T10:17:50;100741.06;;;14.88;50.37
13934;BME280;7039;52.168;9.866;2023-05-16T10:20:17;100735.53;;;14.92;51.27
13934;BME280;7039;52.168;9.866;2023-05-16T10:22:45;100739.19;;;14.90;50.33
13934;BME280;7039;52.168;9.866;2023-05-16T10:25:19;100736.41;;;15.06;50.02
13934;BME280;7039;52.168;9.866;2023-05-16T10:27:50;100735.19;;;15.11;48.85
13934;BME280;7039;52.168;9.866;2023-05-16T10:30:17;100739.16;;;15.04;48.79
13934;BME280;7039;52.168;9.866;2023-05-16T10:32:46;100724.56;;;14.86;47.60
13934;BME280;7039;52.168;9.866;2023-05-16T10:35:15;100731.44;;;15.01;47.18
13934;BME280;7039;52.168;9.866;2023-05-16T10:37:42;100726.88;;;15.44;48.27
13934;BME280;7039;52.168;9.866;2023-05-16T10:40:10;100739.72;;;15.49;47.40
13934;BME280;7039;52.168;9.866;2023-05-16T10:42:37;100732.44;;;15.40;47.11
13934;BME280;7039;52.168;9.866;2023-05-16T10:45:09;100723.00;;;15.63;47.41
13934;BME280;7039;52.168;9.866;2023-05-16T10:47:55;100717.38;;;15.82;45.69
13934;BME280;7039;52.168;9.866;2023-05-16T10:50:36;100737.06;;;16.02;48.46
13934;BME280;7039;52.168;9.866;2023-05-16T10:53:13;100730.25;;;15.59;44.36
13934;BME280;7039;52.168;9.866;2023-05-16T10:55:44;100719.69;;;15.74;43.53
13934;BME280;7039;52.168;9.866;2023-05-16T10:58:17;100710.00;;;16.00;45.02
13934;BME280;7039;52.168;9.866;2023-05-16T11:00:46;100718.84;;;15.73;44.19
13934;BME280;7039;52.168;9.866;2023-05-16T11:03:21;100737.06;;;16.02;42.78
13934;BME280;7039;52.168;9.866;2023-05-16T11:05:52;100727.78;;;16.09;43.22
13934;BME280;7039;52.168;9.866;2023-05-16T11:08:19;100737.63;;;16.44;42.46
13934;BME280;7039;52.168;9.866;2023-05-16T11:10:45;100731.69;;;16.29;43.06
13934;BME280;7039;52.168;9.866;2023-05-16T11:13:12;100729.84;;;15.25;42.99
13934;BME280;7039;52.168;9.866;2023-05-16T11:15:43;100721.56;;;15.32;44.52
13934;BME280;7039;52.168;9.866;2023-05-16T11:18:14;100723.59;;;15.81;44.40
13934;BME280;7039;52.168;9.866;2023-05-16T11:20:42;100714.19;;;15.90;43.14
13934;BME280;7039;52.168;9.866;2023-05-16T11:23:22;100716.94;;;16.14;42.95
13934;BME280;7039;52.168;9.866;2023-05-16T11:25:52;100713.53;;;16.87;44.05
13934;BME280;7039;52.168;9.866;2023-05-16T11:28:19;100717.94;;;16.99;43.42
13934;BME280;7039;52.168;9.866;2023-05-16T11:30:48;100713.66;;;17.09;43.77
13934;BME280;7039;52.168;9.866;2023-05-16T11:33:15;100719.38;;;16.66;42.12
13934;BME280;7039;52.168;9.866;2023-05-16T11:35:44;100716.78;;;16.54;43.04
13934;BME280;7039;52.168;9.866;2023-05-16T11:38:24;100722.31;;;16.12;44.60
13934;BME280;7039;52.168;9.866;2023-05-16T11:40:52;100699.44;;;15.61;46.34
13934;BME280;7039;52.168;9.866;2023-05-16T11:43:18;100728.72;;;16.46;45.91
13934;BME280;7039;52.168;9.866;2023-05-16T11:45:45;100740.63;;;16.26;45.55
13934;BME280;7039;52.168;9.866;2023-05-16T11:48:11;100740.28;;;16.44;46.07
13934;BME280;7039;52.168;9.866;2023-05-16T11:50:38;100740.22;;;16.82;46.86
13934;BME280;7039;52.168;9.866;2023-05-16T11:53:06;100738.25;;;16.60;46.81
13934;BME280;7039;52.168;9.866;2023-05-16T11:55:33;100725.03;;;16.36;47.59
13934;BME280;7039;52.168;9.866;2023-05-16T11:58:00;100734.34;;;16.03;47.21
13934;BME280;7039;52.168;9.866;2023-05-16T12:00:26;100743.34;;;16.12;47.52
13934;BME280;7039;52.168;9.866;2023-05-16T12:02:54;100739.56;;;15.78;46.78
13934;BME280;7039;52.168;9.866;2023-05-16T12:05:27;100735.72;;;15.56;47.50
13934;BME280;7039;52.168;9.866;2023-05-16T12:07:55;100741.47;;;15.36;48.99
13934;BME280;7039;52.168;9.866;2023-05-16T12:10:23;100750.13;;;15.23;49.29
13934;BME280;7039;52.168;9.866;2023-05-16T12:12:50;100750.03;;;14.42;51.07
13934;BME280;7039;52.168;9.866;2023-05-16T12:15:18;100754.34;;;14.72;50.96
13934;BME280;7039;52.168;9.866;2023-05-16T12:17:45;100759.41;;;15.29;49.64
13934;BME280;7039;52.168;9.866;2023-05-16T12:20:13;100768.09;;;15.97;47.37
13934;BME280;7039;52.168;9.866;2023-05-16T12:22:41;100744.63;;;15.94;45.19
13934;BME280;7039;52.168;9.866;2023-05-16T12:25:21;100754.19;;;15.82;44.72
13934;BME280;7039;52.168;9.866;2023-05-16T12:27:48;100756.41;;;16.01;44.92
13934;BME280;7039;52.168;9.866;2023-05-16T12:30:16;100761.78;;;16.38;44.96
13934;BME280;7039;52.168;9.866;2023-05-16T12:32:43;100762.66;;;16.75;43.18
13934;BME280;7039;52.168;9.866;2023-05-16T12:35:10;100761.41;;;17.05;42.99
13934;BME280;7039;52.168;9.866;2023-05-16T12:37:37;100756.56;;;17.11;43.03
13934;BME280;7039;52.168;9.866;2023-05-16T12:40:05;100755.94;;;17.32;43.09
13934;BME280;7039;52.168;9.866;2023-05-16T12:42:32;100761.69;;;16.89;40.89
13934;BME280;7039;52.168;9.866;2023-05-16T12:45:01;100742.91;;;16.44;42.22
13934;BME280;7039;52.168;9.866;2023-05-16T12:47:34;100741.56;;;17.36;43.17
13934;BME280;7039;52.168;9.866;2023-05-16T12:50:08;100749.59;;;17.10;41.10
13934;BME280;7039;52.168;9.866;2023-05-16T12:52:53;100744.03;;;17.02;41.46
13934;BME280;7039;52.168;9.866;2023-05-16T12:55:29;100746.91;;;17.59;41.93
13934;BME280;7039;52.168;9.866;2023-05-16T12:57:59;100754.84;;;18.62;41.63
13934;BME280;7039;52.168;9.866;2023-05-16T13:00:32;100748.94;;;19.03;40.08
13934;BME280;7039;52.168;9.866;2023-05-16T13:03:00;100755.78;;;19.38;39.25
13934;BME280;7039;52.168;9.866;2023-05-16T13:05:39;100761.13;;;19.15;38.07
13934;BME280;7039;52.168;9.866;2023-05-16T13:08:08;100759.19;;;18.51;38.60
13934;BME280;7039;52.168;9.866;2023-05-16T13:10:35;100763.06;;;17.78;40.63
13934;BME280;7039;52.168;9.866;2023-05-16T13:15:40;100757.34;;;16.25;42.20
13934;BME280;7039;52.168;9.866;2023-05-16T13:20:56;100756.41;;;15.75;44.88
13934;BME280;7039;52.168;9.866;2023-05-16T13:23:27;100767.03;;;15.74;44.52
13934;BME280;7039;52.168;9.866;2023-05-16T13:25:55;100770.41;;;16.27;44.24
13934;BME280;7039;52.168;9.866;2023-05-16T13:28:22;100766.28;;;16.48;44.62
13934;BME280;7039;52.168;9.866;2023-05-16T13:54:07;100788.31;;;15.29;46.35
13934;BME280;7039;52.168;9.866;2023-05-16T13:56:35;100786.28;;;15.20;46.12